sensor_id;sensor_type;location;lat;lon;timestamp;pressure;altitude;pressure_sealevel;temperature;humidity
12801;BME280;6464;42.494;27.470;2023-05-03T04:05:49;98908.38;;;9.83;100.00
12801;BME280;6464;42.494;27.470;2023-05-03T04:08:17;99051.94;;;10.72;100.00
12801;BME280;6464;42.494;27.470;2023-05-03T04:10:47;98940.16;;;10.18;100.00
12801;BME280;6464;42.494;27.470;2023-05-03T04:13:15;99052.44;;;11.18;100.00
12801;BME280;6464;42.494;27.470;2023-05-03T04:15:43;99129.16;;;11.32;100.00
12801;BME280;6464;42.494;27.470;2023-05-03T04:18:12;99003.69;;;10.70;100.00
12801;BME280;6464;42.494;27.470;2023-05-03T04:21:02;99118.66;;;12.04;100.00
12801;BME280;6464;42.494;27.470;2023-05-03T04:23:33;99101.44;;;11.59;100.00
12801;BME280;6464;42.494;27.470;2023-05-03T04:26:02;99116.78;;;12.06;100.00
12801;BME280;6464;42.494;27.470;2023-05-03T04:28:33;99237.91;;;13.02;100.00
12801;BME280;6464;42.494;27.470;2023-05-03T04:31:00;99286.47;;;13.36;100.00
12801;BME280;6464;42.494;27.470;2023-05-03T04:33:28;99271.38;;;12.86;100.00
12801;BME280;6464;42.494;27.470;2023-05-03T04:35:58;99370.47;;;12.98;100.00
12801;BME280;6464;42.494;27.470;2023-05-03T04:38:27;99588.91;;;13.96;100.00
12801;BME280;6464;42.494;27.470;2023-05-03T04:40:55;99555.28;;;12.88;100.00
12801;BME280;6464;42.494;27.470;2023-05-03T04:43:23;99717.25;;;13.54;100.00
12801;BME280;6464;42.494;27.470;2023-05-03T04:45:55;99773.53;;;13.19;100.00
12801;BME280;6464;42.494;27.470;2023-05-03T04:48:23;99878.44;;;13.63;100.00
12801;BME280;6464;42.494;27.470;2023-05-03T04:50:51;100052.16;;;14.10;100.00
12801;BME280;6464;42.494;27.470;2023-05-03T04:53:20;100091.34;;;13.83;100.00
12801;BME280;6464;42.494;27.470;2023-05-03T04:55:48;100209.09;;;14.62;100.00
12801;BME280;6464;42.494;27.470;2023-05-03T04:58:16;100243.25;;;14.70;100.00
12801;BME280;6464;42.494;27.470;2023-05-03T05:00:44;100336.13;;;14.71;100.00
12801;BME280;6464;42.494;27.470;2023-05-03T05:03:13;100351.94;;;14.52;100.00
12801;BME280;6464;42.494;27.470;2023-05-03T05:05:41;100362.81;;;14.23;100.00
12801;BME280;6464;42.494;27.470;2023-05-03T05:08:12;100268.84;;;13.84;100.00
12801;BME280;6464;42.494;27.470;2023-05-03T05:10:42;100298.63;;;13.68;100.00
12801;BME280;6464;42.494;27.470;2023-05-03T05:13:10;100298.50;;;13.94;100.00
12801;BME280;6464;42.494;27.470;2023-05-03T05:15:37;100448.56;;;14.69;100.00
12801;BME280;6464;42.494;27.470;2023-05-03T05:18:05;100265.00;;;13.70;100.00
12801;BME280;6464;42.494;27.470;2023-05-03T05:20:33;100427.16;;;14.51;100.00
12801;BME280;6464;42.494;27.470;2023-05-03T05:23:17;100444.06;;;14.71;100.00
12801;BME280;6464;42.494;27.470;2023-05-03T05:25:47;100393.19;;;14.14;100.00
12801;BME280;6464;42.494;27.470;2023-05-03T05:28:14;100413.03;;;14.04;100.00
12801;BME280;6464;42.494;27.470;2023-05-03T05:30:43;100321.00;;;13.84;100.00
12801;BME280;6464;42.494;27.470;2023-05-03T05:33:10;100340.56;;;14.03;100.00
12801;BME280;6464;42.494;27.470;2023-05-03T05:35:38;100414.84;;;14.49;100.00
12801;BME280;6464;42.494;27.470;2023-05-03T05:38:06;100424.69;;;14.45;100.00
12801;BME280;6464;42.494;27.470;2023-05-03T05:40:35;100475.06;;;14.92;100.00
12801;BME280;6464;42.494;27.470;2023-05-03T05:43:05;100445.47;;;14.79;100.00
12801;BME280;6464;42.494;27.470;2023-05-03T05:45:32;100457.53;;;14.43;100.00
12801;BME280;6464;42.494;27.470;2023-05-03T05:48:00;100433.94;;;14.35;100.00
12801;BME280;6464;42.494;27.470;2023-05-03T05:50:28;100473.13;;;14.74;100.00
12801;BME280;6464;42.494;27.470;2023-05-03T05:52:56;100563.72;;;14.88;100.00
12801;BME280;6464;42.494;27.470;2023-05-03T05:55:24;100570.28;;;15.01;100.00
12801;BME280;6464;42.494;27.470;2023-05-03T05:57:51;100611.78;;;15.49;100.00
12801;BME280;6464;42.494;27.470;2023-05-03T06:00:23;100532.91;;;14.84;100.00
12801;BME280;6464;42.494;27.470;2023-05-03T06:02:51;100478.06;;;14.37;100.00
12801;BME280;6464;42.494;27.470;2023-05-03T06:05:19;100538.25;;;15.06;100.00
12801;BME280;6464;42.494;27.470;2023-05-03T06:07:47;100508.59;;;15.16;100.00
12801;BME280;6464;42.494;27.470;2023-05-03T06:10:15;100577.09;;;15.30;100.00
12801;BME280;6464;42.494;27.470;2023-05-03T06:12:42;100628.78;;;15.89;100.00
12801;BME280;6464;42.494;27.470;2023-05-03T06:15:10;100656.94;;;15.73;100.00
12801;BME280;6464;42.494;27.470;2023-05-03T06:17:39;100615.75;;;15.83;100.00
12801;BME280;6464;42.494;27.470;2023-05-03T06:20:07;100742.06;;;16.57;100.00
12801;BME280;6464;42.494;27.470;2023-05-03T06:22:36;100713.03;;;16.31;100.00
12801;BME280;6464;42.494;27.470;2023-05-03T06:25:04;100696.38;;;16.05;100.00
12801;BME280;6464;42.494;27.470;2023-05-03T06:27:33;100761.50;;;16.17;100.00
12801;BME280;6464;42.494;27.470;2023-05-03T06:30:07;100645.81;;;15.61;100.00
12801;BME280;6464;42.494;27.470;2023-05-03T06:32:40;100867.22;;;16.35;100.00
12801;BME280;6464;42.494;27.470;2023-05-03T06:35:08;100780.47;;;16.52;100.00
12801;BME280;6464;42.494;27.470;2023-05-03T06:37:35;100800.63;;;16.57;100.00
12801;BME280;6464;42.494;27.470;2023-05-03T06:40:03;100805.34;;;16.73;100.00
12801;BME280;6464;42.494;27.470;2023-05-03T06:42:31;100769.34;;;16.84;100.00
12801;BME280;6464;42.494;27.470;2023-05-03T06:44:58;100808.09;;;17.32;100.00
12801;BME280;6464;42.494;27.470;2023-05-03T06:47:28;100852.75;;;17.66;100.00
12801;BME280;6464;42.494;27.470;2023-05-03T06:52:45;100903.81;;;17.57;100.00
12801;BME280;6464;42.494;27.470;2023-05-03T06:55:15;101003.25;;;18.02;100.00
12801;BME280;6464;42.494;27.470;2023-05-03T06:57:43;100921.69;;;17.35;100.00
12801;BME280;6464;42.494;27.470;2023-05-03T07:00:13;100989.94;;;17.39;100.00
12801;BME280;6464;42.494;27.470;2023-05-03T07:02:42;101142.06;;;17.36;100.00
12801;BME280;6464;42.494;27.470;2023-05-03T07:05:11;100976.41;;;17.01;100.00
12801;BME280;6464;42.494;27.470;2023-05-03T07:07:39;101024.75;;;16.92;100.00
12801;BME280;6464;42.494;27.470;2023-05-03T07:12:57;101086.72;;;16.97;100.00
12801;BME280;6464;42.494;27.470;2023-05-03T07:15:27;101080.44;;;17.21;100.00
12801;BME280;6464;42.494;27.470;2023-05-03T07:17:57;101079.31;;;17.27;100.00
12801;BME280;6464;42.494;27.470;2023-05-03T07:20:24;101112.66;;;16.92;100.00
12801;BME280;6464;42.494;27.470;2023-05-03T07:22:52;101102.63;;;17.22;100.00
12801;BME280;6464;42.494;27.470;2023-05-03T07:25:21;101034.56;;;16.44;100.00
12801;BME280;6464;42.494;27.470;2023-05-03T07:27:50;101186.28;;;17.18;100.00
12801;BME280;6464;42.494;27.470;2023-05-03T07:30:26;101052.63;;;16.11;100.00
12801;BME280;6464;42.494;27.470;2023-05-03T07:33:06;101148.81;;;16.99;100.00
12801;BME280;6464;42.494;27.470;2023-05-03T07:35:40;101172.44;;;17.08;100.00
12801;BME280;6464;42.494;27.470;2023-05-03T07:38:07;101194.66;;;17.31;100.00
12801;BME280;6464;42.494;27.470;2023-05-03T07:40:36;101257.84;;;17.76;100.00
12801;BME280;6464;42.494;27.470;2023-05-03T07:43:04;101055.66;;;16.26;100.00
12801;BME280;6464;42.494;27.470;2023-05-03T07:45:33;101241.38;;;16.94;100.00
12801;BME280;6464;42.494;27.470;2023-05-03T07:48:06;101191.09;;;17.08;100.00
12801;BME280;6464;42.494;27.470;2023-05-03T07:50:35;101319.16;;;18.21;100.00
12801;BME280;6464;42.494;27.470;2023-05-03T07:53:03;101302.41;;;18.60;100.00
12801;BME280;6464;42.494;27.470;2023-05-03T07:55:31;101335.31;;;18.62;100.00
12801;BME280;6464;42.494;27.470;2023-05-03T07:58:03;101358.19;;;18.47;100.00
12801;BME280;6464;42.494;27.470;2023-05-03T08:00:31;101299.66;;;18.61;100.00
12801;BME280;6464;42.494;27.470;2023-05-03T08:03:01;101107.06;;;17.87;100.00
12801;BME280;6464;42.494;27.470;2023-05-03T08:05:32;101164.72;;;18.12;100.00
12801;BME280;6464;42.494;27.470;2023-05-03T08:08:06;101338.13;;;19.40;100.00
12801;BME280;6464;42.494;27.470;2023-05-03T08:10:42;101392.88;;;19.52;100.00
12801;BME280;6464;42.494;27.470;2023-05-03T08:13:15;101370.75;;;19.88;100.00
12801;BME280;6464;42.494;27.470;2023-05-03T08:15:44;101420.47;;;20.31;100.00
12801;BME280;6464;42.494;27.470;2023-05-03T08:18:16;101424.81;;;20.15;100.00
12801;BME280;6464;42.494;27.470;2023-05-03T08:20:46;101297.31;;;18.75;100.00
12801;BME280;6464;42.494;27.470;2023-05-03T08:23:14;101447.91;;;19.58;100.00
12801;BME280;6464;42.494;27.470;2023-05-03T08:25:47;101547.16;;;19.73;100.00
12801;BME280;6464;42.494;27.470;2023-05-03T08:28:22;101515.84;;;19.33;100.00
12801;BME280;6464;42.494;27.470;2023-05-03T08:30:51;101519.56;;;19.51;100.00
12801;BME280;6464;42.494;27.470;2023-05-03T08:33:29;101451.94;;;18.39;100.00
12801;BME280;6464;42.494;27.470;2023-05-03T08:35:58;101311.00;;;18.04;100.00
12801;BME280;6464;42.494;27.470;2023-05-03T08:38:26;101266.22;;;18.53;100.00
12801;BME280;6464;42.494;27.470;2023-05-03T08:40:57;101421.38;;;18.90;100.00
12801;BME280;6464;42.494;27.470;2023-05-03T08:43:32;101393.88;;;18.88;100.00
12801;BME280;6464;42.494;27.470;2023-05-03T08:46:13;101412.94;;;19.01;100.00
12801;BME280;6464;42.494;27.470;2023-05-03T08:48:43;101229.81;;;18.50;100.00
12801;BME280;6464;42.494;27.470;2023-05-03T08:51:31;101131.69;;;18.14;100.00
12801;BME280;6464;42.494;27.470;2023-05-03T08:54:06;101206.59;;;18.93;100.00
12801;BME280;6464;42.494;27.470;2023-05-03T08:56:39;101035.84;;;17.67;100.00
12801;BME280;6464;42.494;27.470;2023-05-03T08:59:15;101229.19;;;19.05;100.00
12801;BME280;6464;42.494;27.470;2023-05-03T09:02:07;101160.25;;;18.53;100.00
12801;BME280;6464;42.494;27.470;2023-05-03T09:04:37;101096.16;;;18.53;100.00
12801;BME280;6464;42.494;27.470;2023-05-03T09:07:08;101184.69;;;19.04;100.00
12801;BME280;6464;42.494;27.470;2023-05-03T09:09:40;101101.03;;;18.43;100.00
12801;BME280;6464;42.494;27.470;2023-05-03T09:12:09;101203.31;;;18.66;100.00
12801;BME280;6464;42.494;27.470;2023-05-03T09:17:39;101161.56;;;18.63;100.00
12801;BME280;6464;42.494;27.470;2023-05-03T09:20:11;100994.78;;;17.71;100.00
12801;BME280;6464;42.494;27.470;2023-05-03T09:22:49;100949.84;;;17.42;100.00
12801;BME280;6464;42.494;27.470;2023-05-03T09:25:17;101118.84;;;18.22;100.00
12801;BME280;6464;42.494;27.470;2023-05-03T09:27:45;100910.97;;;17.57;100.00
12801;BME280;6464;42.494;27.470;2023-05-03T09:30:31;100952.41;;;18.05;100.00
12801;BME280;6464;42.494;27.470;2023-05-03T09:33:03;100885.44;;;17.51;100.00
12801;BME280;6464;42.494;27.470;2023-05-03T09:35:33;100989.59;;;18.28;100.00
12801;BME280;6464;42.494;27.470;2023-05-03T09:38:02;100753.19;;;16.47;100.00
12801;BME280;6464;42.494;27.470;2023-05-03T09:40:30;100884.38;;;17.76;100.00
12801;BME280;6464;42.494;27.470;2023-05-03T09:43:08;100777.94;;;16.91;100.00
12801;BME280;6464;42.494;27.470;2023-05-03T09:45:36;100933.16;;;18.17;100.00
12801;BME280;6464;42.494;27.470;2023-05-03T09:48:07;101015.59;;;18.43;100.00
12801;BME280;6464;42.494;27.470;2023-05-03T09:50:35;100930.25;;;17.01;100.00
12801;BME280;6464;42.494;27.470;2023-05-03T09:53:04;101081.59;;;18.01;100.00
12801;BME280;6464;42.494;27.470;2023-05-03T09:55:50;100980.13;;;17.82;100.00
12801;BME280;6464;42.494;27.470;2023-05-03T09:58:22;101067.69;;;18.33;100.00
12801;BME280;6464;42.494;27.470;2023-05-03T10:01:23;101484.00;;;21.20;100.00
12801;BME280;6464;42.494;27.470;2023-05-03T10:04:20;101632.84;;;20.74;100.00
12801;BME280;6464;42.494;27.470;2023-05-03T10:07:09;101536.41;;;20.14;100.00
12801;BME280;6464;42.494;27.470;2023-05-03T10:09:58;101483.34;;;19.64;100.00
12801;BME280;6464;42.494;27.470;2023-05-03T10:12:50;101608.91;;;20.69;100.00
12801;BME280;6464;42.494;27.470;2023-05-03T10:15:27;101619.88;;;20.65;100.00
12801;BME280;6464;42.494;27.470;2023-05-03T10:18:17;101661.66;;;20.69;100.00
12801;BME280;6464;42.494;27.470;2023-05-03T10:20:55;101636.50;;;20.32;100.00
12801;BME280;6464;42.494;27.470;2023-05-03T10:24:15;101641.00;;;20.32;100.00
12801;BME280;6464;42.494;27.470;2023-05-03T10:26:49;101529.66;;;20.06;100.00
12801;BME280;6464;42.494;27.470;2023-05-03T10:29:44;101764.69;;;21.42;100.00
12801;BME280;6464;42.494;27.470;2023-05-03T10:32:47;101704.16;;;20.97;100.00
12801;BME280;6464;42.494;27.470;2023-05-03T10:35:32;101989.53;;;21.95;100.00
12801;BME280;6464;42.494;27.470;2023-05-03T10:38:19;101956.31;;;21.58;100.00
12801;BME280;6464;42.494;27.470;2023-05-03T10:40:56;101969.59;;;21.61;100.00
12801;BME280;6464;42.494;27.470;2023-05-03T10:43:50;102107.22;;;22.27;100.00
12801;BME280;6464;42.494;27.470;2023-05-03T10:46:32;102062.34;;;22.48;100.00
12801;BME280;6464;42.494;27.470;2023-05-03T10:49:19;102139.66;;;23.38;100.00
12801;BME280;6464;42.494;27.470;2023-05-03T10:51:46;102018.16;;;22.35;100.00
12801;BME280;6464;42.494;27.470;2023-05-03T10:54:15;102081.75;;;22.93;100.00
12801;BME280;6464;42.494;27.470;2023-05-03T10:56:48;102112.88;;;22.98;100.00
12801;BME280;6464;42.494;27.470;2023-05-03T10:59:15;102061.00;;;22.38;100.00
12801;BME280;6464;42.494;27.470;2023-05-03T11:01:43;102044.41;;;22.49;100.00
12801;BME280;6464;42.494;27.470;2023-05-03T11:04:14;102049.69;;;22.69;100.00
12801;BME280;6464;42.494;27.470;2023-05-03T11:06:46;102042.19;;;22.76;100.00
12801;BME280;6464;42.494;27.470;2023-05-03T11:09:17;102189.66;;;23.24;100.00
12801;BME280;6464;42.494;27.470;2023-05-03T11:11:44;102223.19;;;24.26;100.00
12801;BME280;6464;42.494;27.470;2023-05-03T11:14:11;102438.88;;;25.33;100.00
12801;BME280;6464;42.494;27.470;2023-05-03T11:16:40;102374.88;;;25.51;100.00
12801;BME280;6464;42.494;27.470;2023-05-03T11:19:13;102438.81;;;25.68;100.00
12801;BME280;6464;42.494;27.470;2023-05-03T11:21:41;102383.41;;;25.10;100.00
12801;BME280;6464;42.494;27.470;2023-05-03T11:24:08;102422.34;;;25.39;100.00
12801;BME280;6464;42.494;27.470;2023-05-03T11:26:37;102248.44;;;23.71;100.00
12801;BME280;6464;42.494;27.470;2023-05-03T11:29:04;102278.63;;;24.14;100.00
12801;BME280;6464;42.494;27.470;2023-05-03T11:31:31;102226.44;;;23.62;100.00
12801;BME280;6464;42.494;27.470;2023-05-03T11:33:59;102201.91;;;23.13;100.00
12801;BME280;6464;42.494;27.470;2023-05-03T11:36:26;102043.88;;;22.78;100.00
12801;BME280;6464;42.494;27.470;2023-05-03T11:38:55;101954.41;;;21.99;100.00
12801;BME280;6464;42.494;27.470;2023-05-03T11:41:21;101772.50;;;20.68;100.00
12801;BME280;6464;42.494;27.470;2023-05-03T11:43:50;101631.84;;;20.17;100.00
12801;BME280;6464;42.494;27.470;2023-05-03T11:46:19;101421.72;;;19.66;100.00
12801;BME280;6464;42.494;27.470;2023-05-03T11:48:51;101387.66;;;19.49;100.00
12801;BME280;6464;42.494;27.470;2023-05-03T11:51:20;101324.59;;;19.24;100.00
12801;BME280;6464;42.494;27.470;2023-05-03T11:53:48;101136.66;;;19.02;100.00
12801;BME280;6464;42.494;27.470;2023-05-03T11:56:15;100943.63;;;18.21;100.00
12801;BME280;6464;42.494;27.470;2023-05-03T11:58:53;100606.78;;;16.86;100.00
12801;BME280;6464;42.494;27.470;2023-05-03T12:01:25;100698.47;;;17.95;100.00
12801;BME280;6464;42.494;27.470;2023-05-03T12:03:53;100551.28;;;16.95;100.00
12801;BME280;6464;42.494;27.470;2023-05-03T12:06:21;100555.31;;;17.04;100.00
12801;BME280;6464;42.494;27.470;2023-05-03T12:08:49;100602.16;;;17.46;100.00
12801;BME280;6464;42.494;27.470;2023-05-03T12:11:16;100400.22;;;16.80;100.00
12801;BME280;6464;42.494;27.470;2023-05-03T12:13:43;100571.97;;;17.82;100.00
12801;BME280;6464;42.494;27.470;2023-05-03T12:16:12;100444.72;;;16.95;100.00
12801;BME280;6464;42.494;27.470;2023-05-03T12:18:48;100571.19;;;17.80;100.00
12801;BME280;6464;42.494;27.470;2023-05-03T12:21:19;100524.84;;;18.15;100.00
12801;BME280;6464;42.494;27.470;2023-05-03T12:23:47;100508.47;;;18.06;100.00
12801;BME280;6464;42.494;27.470;2023-05-03T12:26:16;100651.06;;;19.03;100.00
12801;BME280;6464;42.494;27.470;2023-05-03T12:28:45;100836.78;;;19.95;100.00
12801;BME280;6464;42.494;27.470;2023-05-03T12:31:14;100736.97;;;18.95;100.00
12801;BME280;6464;42.494;27.470;2023-05-03T12:33:41;100808.19;;;19.64;100.00
12801;BME280;6464;42.494;27.470;2023-05-03T12:36:09;101029.41;;;20.80;100.00
12801;BME280;6464;42.494;27.470;2023-05-03T12:38:36;101178.59;;;21.13;100.00
12801;BME280;6464;42.494;27.470;2023-05-03T12:41:03;101399.38;;;21.65;100.00
12801;BME280;6464;42.494;27.470;2023-05-03T12:43:30;101697.41;;;22.00;100.00
12801;BME280;6464;42.494;27.470;2023-05-03T12:45:57;101652.06;;;20.65;100.00
12801;BME280;6464;42.494;27.470;2023-05-03T12:48:29;101520.63;;;20.08;100.00
12801;BME280;6464;42.494;27.470;2023-05-03T12:50:56;101557.22;;;20.67;100.00
12801;BME280;6464;42.494;27.470;2023-05-03T12:53:23;101480.78;;;20.59;100.00
12801;BME280;6464;42.494;27.470;2023-05-03T12:55:51;101593.72;;;20.51;100.00
12801;BME280;6464;42.494;27.470;2023-05-03T12:58:18;101334.78;;;19.35;100.00
12801;BME280;6464;42.494;27.470;2023-05-03T13:00:45;101329.88;;;19.84;100.00
12801;BME280;6464;42.494;27.470;2023-05-03T13:03:13;101223.06;;;19.03;100.00
12801;BME280;6464;42.494;27.470;2023-05-03T13:05:43;101048.13;;;18.33;100.00
12801;BME280;6464;42.494;27.470;2023-05-03T13:08:11;100843.69;;;17.50;100.00
12801;BME280;6464;42.494;27.470;2023-05-03T13:10:38;100691.31;;;17.21;100.00
12801;BME280;6464;42.494;27.470;2023-05-03T13:13:06;100446.41;;;15.83;100.00
12801;BME280;6464;42.494;27.470;2023-05-03T13:15:35;100408.66;;;15.75;100.00
12801;BME280;6464;42.494;27.470;2023-05-03T13:18:04;100513.66;;;16.26;100.00
12801;BME280;6464;42.494;27.470;2023-05-03T13:20:32;100533.47;;;16.19;100.00
12801;BME280;6464;42.494;27.470;2023-05-03T13:23:00;100570.53;;;16.44;100.00
12801;BME280;6464;42.494;27.470;2023-05-03T13:25:28;100488.78;;;15.46;100.00
12801;BME280;6464;42.494;27.470;2023-05-03T13:27:56;100577.94;;;16.17;100.00
12801;BME280;6464;42.494;27.470;2023-05-03T13:30:24;100653.56;;;16.11;100.00
12801;BME280;6464;42.494;27.470;2023-05-03T13:32:51;100602.72;;;15.97;100.00
12801;BME280;6464;42.494;27.470;2023-05-03T13:35:18;100520.56;;;15.49;100.00
12801;BME280;6464;42.494;27.470;2023-05-03T13:37:46;100488.63;;;15.71;100.00
12801;BME280;6464;42.494;27.470;2023-05-03T13:40:15;100435.44;;;15.30;100.00
12801;BME280;6464;42.494;27.470;2023-05-03T13:42:43;100659.00;;;16.08;100.00
12801;BME280;6464;42.494;27.470;2023-05-03T13:45:11;100518.22;;;15.41;100.00
12801;BME280;6464;42.494;27.470;2023-05-03T13:47:39;100433.41;;;14.94;100.00
12801;BME280;6464;42.494;27.470;2023-05-03T13:50:07;100634.00;;;16.33;100.00
12801;BME280;6464;42.494;27.470;2023-05-03T13:52:35;100594.16;;;16.11;100.00
12801;BME280;6464;42.494;27.470;2023-05-03T13:55:02;100494.47;;;15.36;100.00
12801;BME280;6464;42.494;27.470;2023-05-03T13:57:34;100441.50;;;15.33;100.00
12801;BME280;6464;42.494;27.470;2023-05-03T14:00:02;100451.50;;;15.27;100.00
12801;BME280;6464;42.494;27.470;2023-05-03T14:02:30;100467.31;;;15.30;100.00
12801;BME280;6464;42.494;27.470;2023-05-03T14:04:57;100620.53;;;16.56;100.00
12801;BME280;6464;42.494;27.470;2023-05-03T14:07:25;100489.66;;;15.68;100.00
12801;BME280;6464;42.494;27.470;2023-05-03T14:09:52;100463.88;;;15.48;100.00
12801;BME280;6464;42.494;27.470;2023-05-03T14:12:19;100534.25;;;16.02;100.00
12801;BME280;6464;42.494;27.470;2023-05-03T14:14:49;100621.06;;;16.64;100.00
12801;BME280;6464;42.494;27.470;2023-05-03T14:17:18;100655.41;;;16.91;100.00
12801;BME280;6464;42.494;27.470;2023-05-03T14:19:46;100474.94;;;15.80;100.00
12801;BME280;6464;42.494;27.470;2023-05-03T14:22:15;100636.97;;;17.05;100.00
12801;BME280;6464;42.494;27.470;2023-05-03T14:24:42;100475.84;;;15.99;100.00
12801;BME280;6464;42.494;27.470;2023-05-03T14:27:13;100612.63;;;16.75;100.00
12801;BME280;6464;42.494;27.470;2023-05-03T14:29:42;100471.63;;;15.75;100.00
12801;BME280;6464;42.494;27.470;2023-05-03T14:32:13;100661.22;;;16.60;100.00
12801;BME280;6464;42.494;27.470;2023-05-03T14:34:40;100547.16;;;16.11;100.00
12801;BME280;6464;42.494;27.470;2023-05-03T14:37:09;100504.41;;;16.14;100.00
12801;BME280;6464;42.494;27.470;2023-05-03T14:39:39;100646.78;;;17.05;100.00
12801;BME280;6464;42.494;27.470;2023-05-03T14:42:11;100542.44;;;16.95;100.00
12801;BME280;6464;42.494;27.470;2023-05-03T14:44:40;100511.69;;;16.69;100.00
12801;BME280;6464;42.494;27.470;2023-05-03T14:47:08;100447.13;;;16.07;100.00
12801;BME280;6464;42.494;27.470;2023-05-03T14:49:37;100394.75;;;15.89;100.00
12801;BME280;6464;42.494;27.470;2023-05-03T14:52:06;100448.09;;;15.86;100.00
12801;BME280;6464;42.494;27.470;2023-05-03T14:54:33;100440.16;;;15.84;100.00
12801;BME280;6464;42.494;27.470;2023-05-03T14:57:01;100474.34;;;15.73;100.00
12801;BME280;6464;42.494;27.470;2023-05-03T14:59:31;100439.63;;;15.35;100.00
12801;BME280;6464;42.494;27.470;2023-05-03T15:01:59;100523.19;;;15.71;100.00
12801;BME280;6464;42.494;27.470;2023-05-03T15:04:29;100453.91;;;14.90;100.00
12801;BME280;6464;42.494;27.470;2023-05-03T15:07:00;100579.81;;;15.51;100.00
12801;BME280;6464;42.494;27.470;2023-05-03T15:09:29;100535.00;;;14.76;100.00
12801;BME280;6464;42.494;27.470;2023-05-03T15:11:58;100631.53;;;15.65;100.00
12801;BME280;6464;42.494;27.470;2023-05-03T15:14:28;100661.13;;;15.78;100.00
12801;BME280;6464;42.494;27.470;2023-05-03T15:16:56;100631.06;;;15.54;100.00
12801;BME280;6464;42.494;27.470;2023-05-03T15:19:24;100629.84;;;15.17;100.00
12801;BME280;6464;42.494;27.470;2023-05-03T15:21:52;100635.63;;;15.29;100.00
12801;BME280;6464;42.494;27.470;2023-05-03T15:24:21;100677.22;;;15.52;100.00
12801;BME280;6464;42.494;27.470;2023-05-03T15:26:49;100606.53;;;15.02;100.00
12801;BME280;6464;42.494;27.470;2023-05-03T15:29:16;100670.25;;;15.73;100.00
12801;BME280;6464;42.494;27.470;2023-05-03T15:31:45;100569.69;;;14.95;100.00
12801;BME280;6464;42.494;27.470;2023-05-03T15:34:12;100665.16;;;15.88;100.00
12801;BME280;6464;42.494;27.470;2023-05-03T15:36:39;100596.78;;;15.48;100.00
12801;BME280;6464;42.494;27.470;2023-05-03T15:39:07;100462.75;;;14.68;100.00
12801;BME280;6464;42.494;27.470;2023-05-03T15:41:36;100603.44;;;15.80;100.00
12801;BME280;6464;42.494;27.470;2023-05-03T15:44:04;100546.19;;;15.28;100.00
12801;BME280;6464;42.494;27.470;2023-05-03T15:46:32;100590.06;;;15.16;100.00
12801;BME280;6464;42.494;27.470;2023-05-03T15:49:01;100640.53;;;15.39;100.00
12801;BME280;6464;42.494;27.470;2023-05-03T15:51:29;100666.47;;;15.78;100.00
12801;BME280;6464;42.494;27.470;2023-05-03T15:53:56;100617.34;;;15.43;100.00
12801;BME280;6464;42.494;27.470;2023-05-03T15:56:25;100661.25;;;15.97;100.00
12801;BME280;6464;42.494;27.470;2023-05-03T15:58:55;100561.97;;;15.10;100.00
12801;BME280;6464;42.494;27.470;2023-05-03T16:01:25;100658.19;;;15.86;100.00
12801;BME280;6464;42.494;27.470;2023-05-03T16:03:52;100711.34;;;15.64;100.00
12801;BME280;6464;42.494;27.470;2023-05-03T16:06:20;100478.56;;;14.24;100.00
12801;BME280;6464;42.494;27.470;2023-05-03T16:08:48;100474.81;;;14.06;100.00
12801;BME280;6464;42.494;27.470;2023-05-03T16:11:17;100662.31;;;15.26;100.00
12801;BME280;6464;42.494;27.470;2023-05-03T16:13:44;100582.94;;;14.48;100.00
12801;BME280;6464;42.494;27.470;2023-05-03T16:16:16;100453.00;;;13.49;100.00
12801;BME280;6464;42.494;27.470;2023-05-03T16:18:46;100561.06;;;13.91;100.00
12801;BME280;6464;42.494;27.470;2023-05-03T16:21:16;100640.50;;;14.71;100.00
12801;BME280;6464;42.494;27.470;2023-05-03T16:23:43;100456.66;;;13.70;100.00
12801;BME280;6464;42.494;27.470;2023-05-03T16:26:12;100584.13;;;14.39;100.00
12801;BME280;6464;42.494;27.470;2023-05-03T16:28:40;100444.66;;;13.60;100.00
12801;BME280;6464;42.494;27.470;2023-05-03T16:31:10;100485.66;;;13.75;100.00
12801;BME280;6464;42.494;27.470;2023-05-03T16:33:39;100445.38;;;13.40;100.00
12801;BME280;6464;42.494;27.470;2023-05-03T16:36:08;100645.97;;;14.66;100.00
12801;BME280;6464;42.494;27.470;2023-05-03T16:38:38;100645.59;;;14.52;100.00
12801;BME280;6464;42.494;27.470;2023-05-03T16:41:12;100562.38;;;14.04;100.00
12801;BME280;6464;42.494;27.470;2023-05-03T16:43:40;100558.78;;;14.05;100.00
12801;BME280;6464;42.494;27.470;2023-05-03T16:46:18;100616.28;;;14.30;100.00
12801;BME280;6464;42.494;27.470;2023-05-03T16:48:48;100450.97;;;13.31;100.00
12801;BME280;6464;42.494;27.470;2023-05-03T16:51:20;100471.31;;;13.29;100.00
12801;BME280;6464;42.494;27.470;2023-05-03T16:53:50;100478.41;;;13.28;100.00
12801;BME280;6464;42.494;27.470;2023-05-03T16:56:18;100436.81;;;13.05;100.00
12801;BME280;6464;42.494;27.470;2023-05-03T16:58:46;100402.88;;;12.90;100.00
12801;BME280;6464;42.494;27.470;2023-05-03T17:01:15;100461.00;;;13.20;100.00
12801;BME280;6464;42.494;27.470;2023-05-03T17:03:52;100414.88;;;13.00;100.00
12801;BME280;6464;42.494;27.470;2023-05-03T17:06:21;100327.97;;;12.61;100.00
12801;BME280;6464;42.494;27.470;2023-05-03T17:08:53;100485.19;;;13.63;100.00
12801;BME280;6464;42.494;27.470;2023-05-03T17:11:24;100589.69;;;14.06;100.00